Bothnia — PBLG — position and weather

sailwx.info

Track history (hours):
 
Tides and Currents Weather Stations Pressure Air Temp Water Temp Dewpoint Dewpoint Depression Visibility Wind Speed Wind Dir Waves Ship Positions

Bothnia

Last reported at 2017-Jul-23 08:30 UTC. Time now 2017-Jul-23 08:38 UTC.
Position N 63°05' E 027°45'.

Length 82 m; draft 3.6 m.

Type: Cargo ship. MMSI: 244741000.

Date/timePositionNaut miles runAvg speedWind from/ knotsBaromVisibWave heightAir tempDewpointWater temp
2017-Jul-23 08:30N 63°05' E 027°45'0 0.0
2017-Jul-23 08:00N 63°05' E 027°45'0 0.0
2017-Jul-23 07:30N 63°05' E 027°45'0 0.0
2017-Jul-23 07:00N 63°05' E 027°45'0 0.0
2017-Jul-23 06:30N 63°05' E 027°45'0 0.0
2017-Jul-23 06:01N 63°05' E 027°45'0 0.0
2017-Jul-23 05:30N 63°05' E 027°45'0 0.0
2017-Jul-23 05:00N 63°05' E 027°45'0 0.0
2017-Jul-23 04:30N 63°05' E 027°45'0 0.0
2017-Jul-23 04:00N 63°05' E 027°45'0 0.0
2017-Jul-23 03:30N 63°05' E 027°45'0 0.0
2017-Jul-23 03:00N 63°05' E 027°45'0 0.0
2017-Jul-23 02:30N 63°05' E 027°45'0 0.0
2017-Jul-23 02:00N 63°05' E 027°45'0 0.0
2017-Jul-23 01:30N 63°05' E 027°45'0 0.0
2017-Jul-23 01:00N 63°05' E 027°45'0 0.0
2017-Jul-23 00:30N 63°05' E 027°45'0 0.0
2017-Jul-23 00:01N 63°05' E 027°45'0 0.0
2017-Jul-22 23:30N 63°05' E 027°45'0 0.0
2017-Jul-22 23:00N 63°05' E 027°45'0 0.0
2017-Jul-22 22:30N 63°05' E 027°45'0 0.0
2017-Jul-22 22:00N 63°05' E 027°45'0 0.0
2017-Jul-22 21:30N 63°05' E 027°45'0 0.0
2017-Jul-22 21:00N 63°05' E 027°45'0 0.0
2017-Jul-22 20:30N 63°05' E 027°45'0 0.0
2017-Jul-22 20:01N 63°05' E 027°45'0 0.0
2017-Jul-22 19:30N 63°05' E 027°45'0 0.0
2017-Jul-22 19:01N 63°05' E 027°45'0 0.0
2017-Jul-22 18:30N 63°05' E 027°45'0 0.0
2017-Jul-22 18:00N 63°05' E 027°45'0 0.0
2017-Jul-22 17:30N 63°05' E 027°45'0 0.0
2017-Jul-22 17:00N 63°05' E 027°45'3 5.5
2017-Jul-22 16:30N 63°03' E 027°48'5 9.5
2017-Jul-22 16:00N 62°58' E 027°50'3 6.5
2017-Jul-22 15:30N 62°55' E 027°50'5 9.5
2017-Jul-22 15:01N 62°50' E 027°48'10 9.8
2017-Jul-22 14:00N 62°41' E 027°42'4 8.1
2017-Jul-22 13:30N 62°37' E 027°42'4 8.7
2017-Jul-22 13:00N 62°33' E 027°46'2 3.3
2017-Jul-22 12:30N 62°32' E 027°48'3 6.8
2017-Jul-22 12:00N 62°29' E 027°50'5 9.1
2017-Jul-22 11:30N 62°24' E 027°54'4 8.3
2017-Jul-22 11:01N 62°20' E 027°53'2 4.5
2017-Jul-22 10:30N 62°18' E 027°55'1 1.5
2017-Jul-22 10:00N 62°17' E 027°55'4 8.4
2017-Jul-22 09:30N 62°14' E 028°01'510.5
2017-Jul-22 09:00N 62°12' E 028°12'510.6
2017-Jul-22 08:30N 62°09' E 028°20'510.5
2017-Jul-22 08:00N 62°06' E 028°29'510.7
2017-Jul-22 07:30N 62°02' E 028°37'510.1
2017-Jul-22 07:00N 61°58' E 028°45'5 9.2
2017-Jul-22 06:30N 61°54' E 028°49'3 6.5
2017-Jul-22 06:01N 61°52' E 028°54'3 6.0
2017-Jul-22 05:30N 61°49' E 028°52'511.0
2017-Jul-22 05:01N 61°49' E 028°40'3 6.2
2017-Jul-22 04:30N 61°47' E 028°37'4 9.0
2017-Jul-22 04:00N 61°44' E 028°30'510.0
2017-Jul-22 03:30N 61°39' E 028°33'4 8.0
2017-Jul-22 03:00N 61°36' E 028°26'510.6
2017-Jul-22 02:30N 61°35' E 028°15'5 9.3
2017-Jul-22 02:00N 61°31' E 028°12'3 5.9
2017-Jul-22 01:31N 61°29' E 028°07'510.0
2017-Jul-22 01:00N 61°25' E 028°12'510.3
2017-Jul-22 00:30N 61°20' E 028°08'4 8.2
2017-Jul-22 00:00N 61°16' E 028°10'511.0
2017-Jul-21 23:30N 61°12' E 028°18'4 7.1
2017-Jul-21 23:00N 61°09' E 028°22'4 7.1
2017-Jul-21 22:30N 61°07' E 028°16'3 5.1
2017-Jul-21 22:00N 61°04' E 028°18'1 1.1
2017-Jul-21 21:30N 61°04' E 028°19'1 1.2
2017-Jul-21 21:00N 61°03' E 028°20'2 4.6
2017-Jul-21 20:30N 61°02' E 028°24'1 1.4
2017-Jul-21 20:00N 61°02' E 028°25'3 5.3
2017-Jul-21 19:30N 60°60' E 028°29'3 5.7
2017-Jul-21 19:00N 60°58' E 028°33'3 6.5
2017-Jul-21 18:30N 60°55' E 028°36'1 1.7
2017-Jul-21 18:01N 60°54' E 028°37'1 1.6
2017-Jul-21 17:30N 60°54' E 028°37'1 2.1
2017-Jul-21 17:00N 60°53' E 028°39'2 4.1
2017-Jul-21 16:30N 60°51' E 028°42'2 3.7
2017-Jul-21 16:00N 60°50' E 028°44'1 2.2
2017-Jul-21 15:30N 60°49' E 028°44'0 0.4
2017-Jul-21 15:00N 60°49' E 028°44'1 2.4
2017-Jul-21 14:31N 60°48' E 028°43'3 5.1
2017-Jul-21 14:00N 60°45' E 028°42'3 5.8
2017-Jul-21 13:30N 60°42' E 028°42'5 9.2
2017-Jul-21 13:00N 60°39' E 028°36'4 7.7
2017-Jul-21 12:30N 60°36' E 028°31'4 8.6
2017-Jul-21 12:00N 60°34' E 028°23'510.4
2017-Jul-21 11:30N 60°28' E 028°22'510.6
2017-Jul-21 11:00N 60°26' E 028°13'510.7
2017-Jul-21 10:30N 60°23' E 028°03'611.2
2017-Jul-21 10:01N 60°18' E 027°57'611.2
2017-Jul-21 09:30N 60°14' E 027°50'511.0
2017-Jul-21 09:00N 60°10' E 027°42'611.1
2017-Jul-21 08:30N 60°07' E 027°33'611.0
2017-Jul-21 08:00N 60°04' E 027°23'510.9
2017-Jul-21 07:30N 60°01' E 027°14'510.9
2017-Jul-21 07:00N 59°58' E 027°05'510.7
2017-Jul-21 06:30N 59°59' E 026°54'511.0
2017-Jul-21 06:00N 59°59' E 026°43'510.8
2017-Jul-21 05:30N 59°58' E 026°33'511.0
2017-Jul-21 05:00N 59°57' E 026°22'611.0
2017-Jul-21 04:30N 59°55' E 026°12'510.9
2017-Jul-21 04:00N 59°53' E 026°01'510.9
2017-Jul-21 03:30N 59°52' E 025°51'510.9
2017-Jul-21 03:00N 59°51' E 025°40'511.0
2017-Jul-21 02:30N 59°50' E 025°29'510.9
2017-Jul-21 02:00N 59°49' E 025°19'510.9
2017-Jul-21 01:30N 59°47' E 025°08'611.2
2017-Jul-21 01:00N 59°46' E 024°57'611.1
2017-Jul-21 00:30N 59°45' E 024°47'510.9
2017-Jul-21 00:00N 59°44' E 024°36'511.0
2017-Jul-20 23:30N 59°44' E 024°25'510.7
2017-Jul-20 23:00N 59°43' E 024°15'510.7
2017-Jul-20 22:31N 59°42' E 024°04'510.8
2017-Jul-20 22:00N 59°41' E 023°53'510.7
2017-Jul-20 21:30N 59°41' E 023°43'510.6
2017-Jul-20 21:00N 59°41' E 023°32'510.7
2017-Jul-20 20:30N 59°40' E 023°22'611.6
2017-Jul-20 20:00N 59°40' E 023°10'611.0
2017-Jul-20 19:31N 59°39' E 022°59'5 9.6
2017-Jul-20 19:00N 59°39' E 022°50'510.9
2017-Jul-20 18:30N 59°39' E 022°39'511.0
2017-Jul-20 18:00N 59°38' E 022°28'611.0
2017-Jul-20 17:30N 59°38' E 022°18'611.0
2017-Jul-20 17:00N 59°38' E 022°07'611.3
2017-Jul-20 16:30N 59°37' E 021°55'510.7
2017-Jul-20 16:00N 59°37' E 021°45'611.0
2017-Jul-20 15:30N 59°37' E 021°34'510.2
2017-Jul-20 15:00N 59°40' E 021°25'1010.2
2017-Jul-20 14:00N 59°50' E 021°22'510.9
2017-Jul-20 13:30N 59°53' E 021°31'510.8
2017-Jul-20 13:00N 59°56' E 021°40'510.6
2017-Jul-20 12:30N 60°02' E 021°41'611.0
2017-Jul-20 12:00N 60°07' E 021°41'510.9
2017-Jul-20 11:30N 60°13' E 021°42'510.5
2017-Jul-20 11:00N 60°15' E 021°51'510.8
2017-Jul-20 10:30N 60°18' E 022°01'510.8
2017-Jul-20 10:00N 60°22' E 022°06'4 8.5
2017-Jul-20 09:30N 60°26' E 022°12'1 1.7
2017-Jul-20 09:00N 60°26' E 022°13'0 0.0
2017-Jul-20 08:30N 60°26' E 022°13'0 0.0
2017-Jul-20 08:00N 60°26' E 022°13'0 0.0
2017-Jul-20 07:30N 60°26' E 022°13'0 0.0
2017-Jul-20 07:00N 60°26' E 022°13'0 0.0
2017-Jul-20 06:30N 60°26' E 022°13'0 0.0
2017-Jul-20 06:01N 60°26' E 022°13'0 0.0
2017-Jul-20 05:30N 60°26' E 022°13'0 0.0
2017-Jul-20 05:00N 60°26' E 022°13'0 0.0
2017-Jul-20 04:30N 60°26' E 022°13'0 0.0
2017-Jul-20 04:00N 60°26' E 022°13'0 0.0
2017-Jul-20 03:30N 60°26' E 022°13'0 0.0
2017-Jul-20 03:00N 60°26' E 022°13'0 0.0
2017-Jul-20 02:30N 60°26' E 022°13'0 0.0
2017-Jul-20 02:00N 60°26' E 022°13'0 0.0
2017-Jul-20 01:31N 60°26' E 022°13'0 0.0
2017-Jul-20 01:00N 60°26' E 022°13'0 0.0
2017-Jul-20 00:31N 60°26' E 022°13'0 0.0
2017-Jul-20 00:00N 60°26' E 022°13'3 6.1
2017-Jul-19 23:30N 60°25' E 022°08'4 8.6
2017-Jul-19 23:00N 60°21' E 022°04'510.2
2017-Jul-19 22:30N 60°16' E 021°58'510.9
2017-Jul-19 22:00N 60°15' E 021°48'4 9.0
2017-Jul-19 21:30N 60°11' E 021°42'5 9.8
2017-Jul-19 21:01N 60°06' E 021°42'510.6
2017-Jul-19 20:30N 60°01' E 021°42'510.3
2017-Jul-19 20:01N 59°56' E 021°39'510.1
2017-Jul-19 19:30N 59°53' E 021°31'510.5
2017-Jul-19 19:00N 59°50' E 021°23'5 9.5
2017-Jul-19 18:30N 59°45' E 021°21'510.0
2017-Jul-19 18:00N 59°40' E 021°18'510.8
2017-Jul-19 17:30N 59°36' E 021°10'510.7
2017-Jul-19 17:00N 59°33' E 021°03'510.7
2017-Jul-19 16:30N 59°29' E 020°56'510.8
2017-Jul-19 16:00N 59°25' E 020°49'510.7
2017-Jul-19 15:30N 59°21' E 020°42'510.6
2017-Jul-19 15:00N 59°17' E 020°35'510.5
2017-Jul-19 14:30N 59°13' E 020°28'510.6
2017-Jul-19 14:00N 59°09' E 020°21'510.6
2017-Jul-19 13:30N 59°05' E 020°13'18710.5
2017-Jul-18 19:47N 56°28' E 017°05'310.4
2017-Jul-18 19:30N 56°25' E 017°02'510.6
2017-Jul-18 19:00N 56°20' E 016°59'510.6
2017-Jul-18 18:30N 56°15' E 016°55'510.6
2017-Jul-18 18:00N 56°11' E 016°52'510.7
2017-Jul-18 17:30N 56°06' E 016°48'611.2
2017-Jul-18 17:00N 56°02' E 016°40'611.8
2017-Jul-18 16:30N 55°59' E 016°31'510.8
2017-Jul-18 16:00N 55°56' E 016°22'510.9
2017-Jul-18 15:30N 55°54' E 016°14'611.0
2017-Jul-18 15:00N 55°51' E 016°06'1111.0
2017-Jul-18 14:00N 55°45' E 015°49'510.8
2017-Jul-18 13:30N 55°43' E 015°40'511.0
2017-Jul-18 13:00N 55°40' E 015°32'611.1
2017-Jul-18 12:30N 55°37' E 015°23'611.3
2017-Jul-18 12:01N 55°34' E 015°15'611.3
2017-Jul-18 11:30N 55°31' E 015°06'611.1
2017-Jul-18 11:00N 55°29' E 014°58'611.2
2017-Jul-18 10:30N 55°26' E 014°49'611.1
2017-Jul-18 10:00N 55°23' E 014°41'510.9
2017-Jul-18 09:31N 55°19' E 014°34'611.0
2017-Jul-18 09:01N 55°15' E 014°28'611.2
2017-Jul-18 08:29N 55°10' E 014°22'511.2
2017-Jul-18 08:01N 55°06' E 014°16'611.1
2017-Jul-18 07:30N 55°02' E 014°10'510.7
2017-Jul-18 07:00N 54°59' E 014°02'5711.0
2017-Jul-18 01:47N 54°35' E 012°31'311.3
2017-Jul-18 01:30N 54°34' E 012°26'611.2
2017-Jul-18 01:00N 54°31' E 012°18'511.0
2017-Jul-18 00:30N 54°26' E 012°13'510.3
2017-Jul-18 00:00N 54°25' E 012°05'811.0
2017-Jul-17 23:19N 54°25' E 011°52'1411.3
2017-Jul-17 22:05N 54°30' E 011°29'111.4
2017-Jul-17 22:00N 54°30' E 011°28'611.4
2017-Jul-17 21:30N 54°32' E 011°19'611.5
2017-Jul-17 21:00N 54°35' E 011°09'611.5
2017-Jul-17 20:30N 54°36' E 010°60'611.2
2017-Jul-17 20:00N 54°38' E 010°51'611.1
2017-Jul-17 19:30N 54°40' E 010°42'511.0
2017-Jul-17 19:00N 54°42' E 010°33'810.9
2017-Jul-17 18:17N 54°46' E 010°21'411.3
2017-Jul-17 17:56N 54°49' E 010°17'510.8
2017-Jul-17 17:27N 54°53' E 010°11'611.1
2017-Jul-17 16:56N 54°58' E 010°05'58 1.2
2017-Jul-15 15:56N 54°06' E 009°20'4 8.3
2017-Jul-15 15:30N 54°02' E 009°18'4 8.2
2017-Jul-15 15:00N 53°58' E 009°16'5 5.0
2017-Jul-15 14:00N 53°55' E 009°11'2 3.2
2017-Jul-15 13:30N 53°54' E 009°09'0 0.2
2017-Jul-15 13:00N 53°54' E 009°09'2 3.4
2017-Jul-15 12:31N 53°53' E 009°06'0 0.4
2017-Jul-15 12:00N 53°53' E 009°05'0 0.0
2017-Jul-15 11:31N 53°53' E 009°05'0 0.0
2017-Jul-15 11:01N 53°53' E 009°05'0 0.0
2017-Jul-15 10:31N 53°53' E 009°05'0 0.1
2017-Jul-15 10:00N 53°53' E 009°05'0 0.2
2017-Jul-15 09:30N 53°53' E 009°06'3 5.8
2017-Jul-15 09:00N 53°52' E 009°01'3 6.7
2017-Jul-15 08:30N 53°51' E 008°56'4 7.1
2017-Jul-15 08:00N 53°50' E 008°50'3 7.0
2017-Jul-15 07:30N 53°51' E 008°44'3 6.8
2017-Jul-15 07:00N 53°54' E 008°41'3 6.7
2017-Jul-15 06:30N 53°57' E 008°38'4 7.4
2017-Jul-15 06:00N 53°58' E 008°32'4 7.5
2017-Jul-15 05:30N 53°59' E 008°25'4 8.0
2017-Jul-15 05:00N 53°59' E 008°19'8 8.1
2017-Jul-15 04:03N 53°59' E 008°06'2 8.0
2017-Jul-15 03:50N 53°58' E 008°03'3 8.0
2017-Jul-15 03:30N 53°58' E 007°58'137 7.4
2017-Jul-14 09:02N 53°01' E 004°29'1 8.8
2017-Jul-14 08:58N 53°01' E 004°29'4 9.0
2017-Jul-14 08:30N 52°57' E 004°30'5 9.4
2017-Jul-14 08:00N 52°52' E 004°31'4 9.0
2017-Jul-14 07:30N 52°48' E 004°30'5 9.7
2017-Jul-14 07:00N 52°43' E 004°30'5 9.7
2017-Jul-14 06:30N 52°38' E 004°30'5 9.9
2017-Jul-14 06:00N 52°33' E 004°30'5 9.1
2017-Jul-14 05:30N 52°28' E 004°30'3 6.9
2017-Jul-14 05:00N 52°28' E 004°36'1 1.2
2017-Jul-14 04:30N 52°28' E 004°37'1 1.3
2017-Jul-14 04:00N 52°28' E 004°38'0 0.0
2017-Jul-14 03:30N 52°28' E 004°38'0 0.0
2017-Jul-14 03:00N 52°28' E 004°38'0 0.0
2017-Jul-14 02:30N 52°28' E 004°38'0 0.0
2017-Jul-14 02:00N 52°28' E 004°38'0 0.0
2017-Jul-14 01:30N 52°28' E 004°38'0 0.0
2017-Jul-14 01:00N 52°28' E 004°38'0 0.0
2017-Jul-14 00:30N 52°28' E 004°38'0 0.0
2017-Jul-14 00:00N 52°28' E 004°38'0 0.0
2017-Jul-13 23:30N 52°28' E 004°38'0 0.0
2017-Jul-13 23:00N 52°28' E 004°38'0 0.0
2017-Jul-13 22:30N 52°28' E 004°38'0 0.0
2017-Jul-13 22:00N 52°28' E 004°38'0 0.0
2017-Jul-13 21:30N 52°28' E 004°38'0 0.0
2017-Jul-13 21:00N 52°28' E 004°38'0 0.0
2017-Jul-13 20:30N 52°28' E 004°38'0 0.0
2017-Jul-13 20:00N 52°28' E 004°38'0 0.0
2017-Jul-13 19:30N 52°28' E 004°38'0 0.0
2017-Jul-13 19:00N 52°28' E 004°38'0 0.0
2017-Jul-13 18:30N 52°28' E 004°38'0 0.0
2017-Jul-13 18:00N 52°28' E 004°38'0 0.0
2017-Jul-13 17:30N 52°28' E 004°38'0 0.0
2017-Jul-13 17:00N 52°28' E 004°38'0 0.0
2017-Jul-13 16:30N 52°28' E 004°38'0 0.0
2017-Jul-13 16:00N 52°28' E 004°38'0 0.0
2017-Jul-13 15:30N 52°28' E 004°38'0 0.1
2017-Jul-13 15:00N 52°28' E 004°38'0 0.1
2017-Jul-13 14:30N 52°28' E 004°38'0 0.0
2017-Jul-13 14:00N 52°28' E 004°38'0 0.0
2017-Jul-13 13:30N 52°28' E 004°38'0 0.0
2017-Jul-13 13:00N 52°28' E 004°38'0 0.0
2017-Jul-13 12:30N 52°28' E 004°38'0 0.0
2017-Jul-13 12:00N 52°28' E 004°38'0 0.0
2017-Jul-13 11:30N 52°28' E 004°38'0 0.0
2017-Jul-13 11:00N 52°28' E 004°38'0 0.0
2017-Jul-13 10:30N 52°28' E 004°38'0 0.0
2017-Jul-13 10:00N 52°28' E 004°38'0 0.2
2017-Jul-13 09:30N 52°28' E 004°38'1 2.4
2017-Jul-13 09:00N 52°28' E 004°36'  
Track history (hours):
 
Tides and Currents Weather Stations Pressure Air Temp Water Temp Dewpoint Dewpoint Depression Visibility Wind Speed Wind Dir Waves Ship Positions

Bothnia

Last reported at 2017-Jul-23 08:30 UTC. Time now 2017-Jul-23 08:38 UTC.
Position N 63°05' E 027°45'.

Length 82 m; draft 3.6 m.

Type: Cargo ship. MMSI: 244741000.

Date/timePositionNaut miles runAvg speedWind from/ knotsBaromVisibWave heightAir tempDewpointWater temp
2017-Jul-23 08:30N 63°05' E 027°45'0 0.0
2017-Jul-23 08:00N 63°05' E 027°45'0 0.0
2017-Jul-23 07:30N 63°05' E 027°45'0 0.0
2017-Jul-23 07:00N 63°05' E 027°45'0 0.0
2017-Jul-23 06:30N 63°05' E 027°45'0 0.0
2017-Jul-23 06:01N 63°05' E 027°45'0 0.0
2017-Jul-23 05:30N 63°05' E 027°45'0 0.0
2017-Jul-23 05:00N 63°05' E 027°45'0 0.0
2017-Jul-23 04:30N 63°05' E 027°45'0 0.0
2017-Jul-23 04:00N 63°05' E 027°45'0 0.0
2017-Jul-23 03:30N 63°05' E 027°45'0 0.0
2017-Jul-23 03:00N 63°05' E 027°45'0 0.0
2017-Jul-23 02:30N 63°05' E 027°45'0 0.0
2017-Jul-23 02:00N 63°05' E 027°45'0 0.0
2017-Jul-23 01:30N 63°05' E 027°45'0 0.0
2017-Jul-23 01:00N 63°05' E 027°45'0 0.0
2017-Jul-23 00:30N 63°05' E 027°45'0 0.0
2017-Jul-23 00:01N 63°05' E 027°45'0 0.0
2017-Jul-22 23:30N 63°05' E 027°45'0 0.0
2017-Jul-22 23:00N 63°05' E 027°45'0 0.0
2017-Jul-22 22:30N 63°05' E 027°45'0 0.0
2017-Jul-22 22:00N 63°05' E 027°45'0 0.0
2017-Jul-22 21:30N 63°05' E 027°45'0 0.0
2017-Jul-22 21:00N 63°05' E 027°45'0 0.0
2017-Jul-22 20:30N 63°05' E 027°45'0 0.0
2017-Jul-22 20:01N 63°05' E 027°45'0 0.0
2017-Jul-22 19:30N 63°05' E 027°45'0 0.0
2017-Jul-22 19:01N 63°05' E 027°45'0 0.0
2017-Jul-22 18:30N 63°05' E 027°45'0 0.0
2017-Jul-22 18:00N 63°05' E 027°45'0 0.0
2017-Jul-22 17:30N 63°05' E 027°45'0 0.0
2017-Jul-22 17:00N 63°05' E 027°45'3 5.5
2017-Jul-22 16:30N 63°03' E 027°48'5 9.5
2017-Jul-22 16:00N 62°58' E 027°50'3 6.5
2017-Jul-22 15:30N 62°55' E 027°50'5 9.5
2017-Jul-22 15:01N 62°50' E 027°48'10 9.8
2017-Jul-22 14:00N 62°41' E 027°42'4 8.1
2017-Jul-22 13:30N 62°37' E 027°42'4 8.7
2017-Jul-22 13:00N 62°33' E 027°46'2 3.3
2017-Jul-22 12:30N 62°32' E 027°48'3 6.8
2017-Jul-22 12:00N 62°29' E 027°50'5 9.1
2017-Jul-22 11:30N 62°24' E 027°54'4 8.3
2017-Jul-22 11:01N 62°20' E 027°53'2 4.5
2017-Jul-22 10:30N 62°18' E 027°55'1 1.5
2017-Jul-22 10:00N 62°17' E 027°55'4 8.4
2017-Jul-22 09:30N 62°14' E 028°01'510.5
2017-Jul-22 09:00N 62°12' E 028°12'510.6
2017-Jul-22 08:30N 62°09' E 028°20'510.5
2017-Jul-22 08:00N 62°06' E 028°29'510.7
2017-Jul-22 07:30N 62°02' E 028°37'510.1
2017-Jul-22 07:00N 61°58' E 028°45'5 9.2
2017-Jul-22 06:30N 61°54' E 028°49'3 6.5
2017-Jul-22 06:01N 61°52' E 028°54'3 6.0
2017-Jul-22 05:30N 61°49' E 028°52'511.0
2017-Jul-22 05:01N 61°49' E 028°40'3 6.2
2017-Jul-22 04:30N 61°47' E 028°37'4 9.0
2017-Jul-22 04:00N 61°44' E 028°30'510.0
2017-Jul-22 03:30N 61°39' E 028°33'4 8.0
2017-Jul-22 03:00N 61°36' E 028°26'510.6
2017-Jul-22 02:30N 61°35' E 028°15'5 9.3
2017-Jul-22 02:00N 61°31' E 028°12'3 5.9
2017-Jul-22 01:31N 61°29' E 028°07'510.0
2017-Jul-22 01:00N 61°25' E 028°12'510.3
2017-Jul-22 00:30N 61°20' E 028°08'4 8.2
2017-Jul-22 00:00N 61°16' E 028°10'511.0
2017-Jul-21 23:30N 61°12' E 028°18'4 7.1
2017-Jul-21 23:00N 61°09' E 028°22'4 7.1
2017-Jul-21 22:30N 61°07' E 028°16'3 5.1
2017-Jul-21 22:00N 61°04' E 028°18'1 1.1
2017-Jul-21 21:30N 61°04' E 028°19'1 1.2
2017-Jul-21 21:00N 61°03' E 028°20'2 4.6
2017-Jul-21 20:30N 61°02' E 028°24'1 1.4
2017-Jul-21 20:00N 61°02' E 028°25'3 5.3
2017-Jul-21 19:30N 60°60' E 028°29'3 5.7
2017-Jul-21 19:00N 60°58' E 028°33'3 6.5
2017-Jul-21 18:30N 60°55' E 028°36'1 1.7
2017-Jul-21 18:01N 60°54' E 028°37'1 1.6
2017-Jul-21 17:30N 60°54' E 028°37'1 2.1
2017-Jul-21 17:00N 60°53' E 028°39'2 4.1
2017-Jul-21 16:30N 60°51' E 028°42'2 3.7
2017-Jul-21 16:00N 60°50' E 028°44'1 2.2
2017-Jul-21 15:30N 60°49' E 028°44'0 0.4
2017-Jul-21 15:00N 60°49' E 028°44'1 2.4
2017-Jul-21 14:31N 60°48' E 028°43'3 5.1
2017-Jul-21 14:00N 60°45' E 028°42'3 5.8
2017-Jul-21 13:30N 60°42' E 028°42'5 9.2
2017-Jul-21 13:00N 60°39' E 028°36'4 7.7
2017-Jul-21 12:30N 60°36' E 028°31'4 8.6
2017-Jul-21 12:00N 60°34' E 028°23'510.4
2017-Jul-21 11:30N 60°28' E 028°22'510.6
2017-Jul-21 11:00N 60°26' E 028°13'510.7
2017-Jul-21 10:30N 60°23' E 028°03'611.2
2017-Jul-21 10:01N 60°18' E 027°57'611.2
2017-Jul-21 09:30N 60°14' E 027°50'511.0
2017-Jul-21 09:00N 60°10' E 027°42'611.1
2017-Jul-21 08:30N 60°07' E 027°33'611.0
2017-Jul-21 08:00N 60°04' E 027°23'510.9
2017-Jul-21 07:30N 60°01' E 027°14'510.9
2017-Jul-21 07:00N 59°58' E 027°05'510.7
2017-Jul-21 06:30N 59°59' E 026°54'511.0
2017-Jul-21 06:00N 59°59' E 026°43'510.8
2017-Jul-21 05:30N 59°58' E 026°33'511.0
2017-Jul-21 05:00N 59°57' E 026°22'611.0
2017-Jul-21 04:30N 59°55' E 026°12'510.9
2017-Jul-21 04:00N 59°53' E 026°01'510.9
2017-Jul-21 03:30N 59°52' E 025°51'510.9
2017-Jul-21 03:00N 59°51' E 025°40'511.0
2017-Jul-21 02:30N 59°50' E 025°29'510.9
2017-Jul-21 02:00N 59°49' E 025°19'510.9
2017-Jul-21 01:30N 59°47' E 025°08'611.2
2017-Jul-21 01:00N 59°46' E 024°57'611.1
2017-Jul-21 00:30N 59°45' E 024°47'510.9
2017-Jul-21 00:00N 59°44' E 024°36'511.0
2017-Jul-20 23:30N 59°44' E 024°25'510.7
2017-Jul-20 23:00N 59°43' E 024°15'510.7
2017-Jul-20 22:31N 59°42' E 024°04'510.8
2017-Jul-20 22:00N 59°41' E 023°53'510.7
2017-Jul-20 21:30N 59°41' E 023°43'510.6
2017-Jul-20 21:00N 59°41' E 023°32'510.7
2017-Jul-20 20:30N 59°40' E 023°22'611.6
2017-Jul-20 20:00N 59°40' E 023°10'611.0
2017-Jul-20 19:31N 59°39' E 022°59'5 9.6
2017-Jul-20 19:00N 59°39' E 022°50'510.9
2017-Jul-20 18:30N 59°39' E 022°39'511.0
2017-Jul-20 18:00N 59°38' E 022°28'611.0
2017-Jul-20 17:30N 59°38' E 022°18'611.0
2017-Jul-20 17:00N 59°38' E 022°07'611.3
2017-Jul-20 16:30N 59°37' E 021°55'510.7
2017-Jul-20 16:00N 59°37' E 021°45'611.0
2017-Jul-20 15:30N 59°37' E 021°34'510.2
2017-Jul-20 15:00N 59°40' E 021°25'1010.2
2017-Jul-20 14:00N 59°50' E 021°22'510.9
2017-Jul-20 13:30N 59°53' E 021°31'510.8
2017-Jul-20 13:00N 59°56' E 021°40'510.6
2017-Jul-20 12:30N 60°02' E 021°41'611.0
2017-Jul-20 12:00N 60°07' E 021°41'510.9
2017-Jul-20 11:30N 60°13' E 021°42'510.5
2017-Jul-20 11:00N 60°15' E 021°51'510.8
2017-Jul-20 10:30N 60°18' E 022°01'510.8
2017-Jul-20 10:00N 60°22' E 022°06'4 8.5
2017-Jul-20 09:30N 60°26' E 022°12'1 1.7
2017-Jul-20 09:00N 60°26' E 022°13'0 0.0
2017-Jul-20 08:30N 60°26' E 022°13'0 0.0
2017-Jul-20 08:00N 60°26' E 022°13'0 0.0
2017-Jul-20 07:30N 60°26' E 022°13'0 0.0
2017-Jul-20 07:00N 60°26' E 022°13'0 0.0
2017-Jul-20 06:30N 60°26' E 022°13'0 0.0
2017-Jul-20 06:01N 60°26' E 022°13'0 0.0
2017-Jul-20 05:30N 60°26' E 022°13'0 0.0
2017-Jul-20 05:00N 60°26' E 022°13'0 0.0
2017-Jul-20 04:30N 60°26' E 022°13'0 0.0
2017-Jul-20 04:00N 60°26' E 022°13'0 0.0
2017-Jul-20 03:30N 60°26' E 022°13'0 0.0
2017-Jul-20 03:00N 60°26' E 022°13'0 0.0
2017-Jul-20 02:30N 60°26' E 022°13'0 0.0
2017-Jul-20 02:00N 60°26' E 022°13'0 0.0
2017-Jul-20 01:31N 60°26' E 022°13'0 0.0
2017-Jul-20 01:00N 60°26' E 022°13'0 0.0
2017-Jul-20 00:31N 60°26' E 022°13'0 0.0
2017-Jul-20 00:00N 60°26' E 022°13'3 6.1
2017-Jul-19 23:30N 60°25' E 022°08'4 8.6
2017-Jul-19 23:00N 60°21' E 022°04'510.2
2017-Jul-19 22:30N 60°16' E 021°58'510.9
2017-Jul-19 22:00N 60°15' E 021°48'4 9.0
2017-Jul-19 21:30N 60°11' E 021°42'5 9.8
2017-Jul-19 21:01N 60°06' E 021°42'510.6
2017-Jul-19 20:30N 60°01' E 021°42'510.3
2017-Jul-19 20:01N 59°56' E 021°39'510.1
2017-Jul-19 19:30N 59°53' E 021°31'510.5
2017-Jul-19 19:00N 59°50' E 021°23'5 9.5
2017-Jul-19 18:30N 59°45' E 021°21'510.0
2017-Jul-19 18:00N 59°40' E 021°18'510.8
2017-Jul-19 17:30N 59°36' E 021°10'510.7
2017-Jul-19 17:00N 59°33' E 021°03'510.7
2017-Jul-19 16:30N 59°29' E 020°56'510.8
2017-Jul-19 16:00N 59°25' E 020°49'510.7
2017-Jul-19 15:30N 59°21' E 020°42'510.6
2017-Jul-19 15:00N 59°17' E 020°35'510.5
2017-Jul-19 14:30N 59°13' E 020°28'510.6
2017-Jul-19 14:00N 59°09' E 020°21'510.6
2017-Jul-19 13:30N 59°05' E 020°13'18710.5
2017-Jul-18 19:47N 56°28' E 017°05'310.4
2017-Jul-18 19:30N 56°25' E 017°02'510.6
2017-Jul-18 19:00N 56°20' E 016°59'510.6
2017-Jul-18 18:30N 56°15' E 016°55'510.6
2017-Jul-18 18:00N 56°11' E 016°52'510.7
2017-Jul-18 17:30N 56°06' E 016°48'611.2
2017-Jul-18 17:00N 56°02' E 016°40'611.8
2017-Jul-18 16:30N 55°59' E 016°31'510.8
2017-Jul-18 16:00N 55°56' E 016°22'510.9
2017-Jul-18 15:30N 55°54' E 016°14'611.0
2017-Jul-18 15:00N 55°51' E 016°06'1111.0
2017-Jul-18 14:00N 55°45' E 015°49'510.8
2017-Jul-18 13:30N 55°43' E 015°40'511.0
2017-Jul-18 13:00N 55°40' E 015°32'611.1
2017-Jul-18 12:30N 55°37' E 015°23'611.3
2017-Jul-18 12:01N 55°34' E 015°15'611.3
2017-Jul-18 11:30N 55°31' E 015°06'611.1
2017-Jul-18 11:00N 55°29' E 014°58'611.2
2017-Jul-18 10:30N 55°26' E 014°49'611.1
2017-Jul-18 10:00N 55°23' E 014°41'510.9
2017-Jul-18 09:31N 55°19' E 014°34'611.0
2017-Jul-18 09:01N 55°15' E 014°28'611.2
2017-Jul-18 08:29N 55°10' E 014°22'511.2
2017-Jul-18 08:01N 55°06' E 014°16'611.1
2017-Jul-18 07:30N 55°02' E 014°10'510.7
2017-Jul-18 07:00N 54°59' E 014°02'5711.0
2017-Jul-18 01:47N 54°35' E 012°31'311.3
2017-Jul-18 01:30N 54°34' E 012°26'611.2
2017-Jul-18 01:00N 54°31' E 012°18'511.0
2017-Jul-18 00:30N 54°26' E 012°13'510.3
2017-Jul-18 00:00N 54°25' E 012°05'811.0
2017-Jul-17 23:19N 54°25' E 011°52'1411.3
2017-Jul-17 22:05N 54°30' E 011°29'111.4
2017-Jul-17 22:00N 54°30' E 011°28'611.4
2017-Jul-17 21:30N 54°32' E 011°19'611.5
2017-Jul-17 21:00N 54°35' E 011°09'611.5
2017-Jul-17 20:30N 54°36' E 010°60'611.2
2017-Jul-17 20:00N 54°38' E 010°51'611.1
2017-Jul-17 19:30N 54°40' E 010°42'511.0
2017-Jul-17 19:00N 54°42' E 010°33'810.9
2017-Jul-17 18:17N 54°46' E 010°21'411.3
2017-Jul-17 17:56N 54°49' E 010°17'510.8
2017-Jul-17 17:27N 54°53' E 010°11'611.1
2017-Jul-17 16:56N 54°58' E 010°05'58 1.2
2017-Jul-15 15:56N 54°06' E 009°20'4 8.3
2017-Jul-15 15:30N 54°02' E 009°18'4 8.2
2017-Jul-15 15:00N 53°58' E 009°16'5 5.0
2017-Jul-15 14:00N 53°55' E 009°11'2 3.2
2017-Jul-15 13:30N 53°54' E 009°09'0 0.2
2017-Jul-15 13:00N 53°54' E 009°09'2 3.4
2017-Jul-15 12:31N 53°53' E 009°06'0 0.4
2017-Jul-15 12:00N 53°53' E 009°05'0 0.0
2017-Jul-15 11:31N 53°53' E 009°05'0 0.0
2017-Jul-15 11:01N 53°53' E 009°05'0 0.0
2017-Jul-15 10:31N 53°53' E 009°05'0 0.1
2017-Jul-15 10:00N 53°53' E 009°05'0 0.2
2017-Jul-15 09:30N 53°53' E 009°06'3 5.8
2017-Jul-15 09:00N 53°52' E 009°01'3 6.7
2017-Jul-15 08:30N 53°51' E 008°56'4 7.1
2017-Jul-15 08:00N 53°50' E 008°50'3 7.0
2017-Jul-15 07:30N 53°51' E 008°44'3 6.8
2017-Jul-15 07:00N 53°54' E 008°41'3 6.7
2017-Jul-15 06:30N 53°57' E 008°38'4 7.4
2017-Jul-15 06:00N 53°58' E 008°32'4 7.5
2017-Jul-15 05:30N 53°59' E 008°25'4 8.0
2017-Jul-15 05:00N 53°59' E 008°19'8 8.1
2017-Jul-15 04:03N 53°59' E 008°06'2 8.0
2017-Jul-15 03:50N 53°58' E 008°03'3 8.0
2017-Jul-15 03:30N 53°58' E 007°58'137 7.4
2017-Jul-14 09:02N 53°01' E 004°29'1 8.8
2017-Jul-14 08:58N 53°01' E 004°29'4 9.0
2017-Jul-14 08:30N 52°57' E 004°30'5 9.4
2017-Jul-14 08:00N 52°52' E 004°31'4 9.0
2017-Jul-14 07:30N 52°48' E 004°30'5 9.7
2017-Jul-14 07:00N 52°43' E 004°30'5 9.7
2017-Jul-14 06:30N 52°38' E 004°30'5 9.9
2017-Jul-14 06:00N 52°33' E 004°30'5 9.1
2017-Jul-14 05:30N 52°28' E 004°30'3 6.9
2017-Jul-14 05:00N 52°28' E 004°36'1 1.2
2017-Jul-14 04:30N 52°28' E 004°37'1 1.3
2017-Jul-14 04:00N 52°28' E 004°38'0 0.0
2017-Jul-14 03:30N 52°28' E 004°38'0 0.0
2017-Jul-14 03:00N 52°28' E 004°38'0 0.0
2017-Jul-14 02:30N 52°28' E 004°38'0 0.0
2017-Jul-14 02:00N 52°28' E 004°38'0 0.0
2017-Jul-14 01:30N 52°28' E 004°38'0 0.0
2017-Jul-14 01:00N 52°28' E 004°38'0 0.0
2017-Jul-14 00:30N 52°28' E 004°38'0 0.0
2017-Jul-14 00:00N 52°28' E 004°38'0 0.0
2017-Jul-13 23:30N 52°28' E 004°38'0 0.0
2017-Jul-13 23:00N 52°28' E 004°38'0 0.0
2017-Jul-13 22:30N 52°28' E 004°38'0 0.0
2017-Jul-13 22:00N 52°28' E 004°38'0 0.0
2017-Jul-13 21:30N 52°28' E 004°38'0 0.0
2017-Jul-13 21:00N 52°28' E 004°38'0 0.0
2017-Jul-13 20:30N 52°28' E 004°38'0 0.0
2017-Jul-13 20:00N 52°28' E 004°38'0 0.0
2017-Jul-13 19:30N 52°28' E 004°38'0 0.0
2017-Jul-13 19:00N 52°28' E 004°38'0 0.0
2017-Jul-13 18:30N 52°28' E 004°38'0 0.0
2017-Jul-13 18:00N 52°28' E 004°38'0 0.0
2017-Jul-13 17:30N 52°28' E 004°38'0 0.0
2017-Jul-13 17:00N 52°28' E 004°38'0 0.0
2017-Jul-13 16:30N 52°28' E 004°38'0 0.0
2017-Jul-13 16:00N 52°28' E 004°38'0 0.0
2017-Jul-13 15:30N 52°28' E 004°38'0 0.1
2017-Jul-13 15:00N 52°28' E 004°38'0 0.1
2017-Jul-13 14:30N 52°28' E 004°38'0 0.0
2017-Jul-13 14:00N 52°28' E 004°38'0 0.0
2017-Jul-13 13:30N 52°28' E 004°38'0 0.0
2017-Jul-13 13:00N 52°28' E 004°38'0 0.0
2017-Jul-13 12:30N 52°28' E 004°38'0 0.0
2017-Jul-13 12:00N 52°28' E 004°38'0 0.0
2017-Jul-13 11:30N 52°28' E 004°38'0 0.0
2017-Jul-13 11:00N 52°28' E 004°38'0 0.0
2017-Jul-13 10:30N 52°28' E 004°38'0 0.0
2017-Jul-13 10:00N 52°28' E 004°38'0 0.2
2017-Jul-13 09:30N 52°28' E 004°38'1 2.4
2017-Jul-13 09:00N 52°28' E 004°36'  

Dump ship's entire track history